^^
Saratoga-Weather Station Historical Data
Daily Summary for May 5, 2021 Units:  Metric    English   Both
Daily Weekly Monthly Yearly Custom
  High: Low: Average:
Temperature: 27.4 °C 13.3 °C 19.8 °C
Dew Point: 16.8 °C 12.2 °C 14.2 °C
Humidity: 95% 44% 73%
Wind Speed: 9.7km/h 0km/h 1.2km/h
Wind Gust: 16.1km/h - -
Wind- - SSE
Pressure: 1020.0 hPa 1016.3 hPa -
Precipitation: 0.0 mm    
Historical Graphs
 
 
Tabular Data for May 5, 2021
Time Temperature Dew Point Pressure Wind Wind Speed Wind Gust Humidity Rainfall Rate (Hourly) solar
00:02 15.8 °C 13.1 °C 1016.3 hPa Calm     84% 0.0 mm 0 W/m2
00:07 15.8 °C 13.3 °C 1016.3 hPa Calm     85% 0.0 mm 0 W/m2
00:12 15.7 °C 13.2 °C 1016.3 hPa Calm     85% 0.0 mm 0 W/m2
00:17 15.7 °C 13.2 °C 1016.3 hPa Calm     85% 0.0 mm 0 W/m2
00:22 15.7 °C 13.2 °C 1016.3 hPa Calm     85% 0.0 mm 0 W/m2
00:27 15.6 °C 13.1 °C 1016.3 hPa Calm     85% 0.0 mm 0 W/m2
00:32 15.6 °C 13.1 °C 1016.3 hPa Calm     85% 0.0 mm 0 W/m2
00:37 15.5 °C 13.2 °C 1016.3 hPa Calm     86% 0.0 mm 0 W/m2
00:42 15.4 °C 13.1 °C 1016.3 hPa Calm     86% 0.0 mm 0 W/m2
00:47 15.3 °C 13 °C 1016.3 hPa Calm     86% 0.0 mm 0 W/m2
00:52 15.3 °C 13 °C 1016.3 hPa Calm     86% 0.0 mm 0 W/m2
00:57 15.2 °C 12.9 °C 1016.3 hPa Calm     86% 0.0 mm 0 W/m2
01:02 15.2 °C 13 °C 1016.3 hPa Calm     87% 0.0 mm 0 W/m2
01:07 15.2 °C 13 °C 1016.3 hPa Calm     87% 0.0 mm 0 W/m2
01:12 15.1 °C 13 °C 1016.3 hPa Calm     87% 0.0 mm 0 W/m2
01:17 15 °C 12.9 °C 1016.6 hPa Calm     87% 0.0 mm 0 W/m2
01:22 14.9 °C 12.9 °C 1016.6 hPa SSW 3.2 km/h 3.2 km/h 88% 0.0 mm 0 W/m2
01:27 14.9 °C 12.9 °C 1016.6 hPa Calm   3.2 km/h 88% 0.0 mm 0 W/m2
01:32 14.9 °C 12.9 °C 1016.6 hPa SSW 1.4 km/h 1.6 km/h 88% 0.0 mm 0 W/m2
01:37 15.1 °C 13.1 °C 1016.6 hPa Calm     88% 0.0 mm 0 W/m2
01:42 15.1 °C 13.1 °C 1016.6 hPa SSW 3.2 km/h 3.2 km/h 88% 0.0 mm 0 W/m2
01:47 15.3 °C 13.3 °C 1016.6 hPa Calm     88% 0.0 mm 0 W/m2
01:52 15.3 °C 13.1 °C 1016.6 hPa Calm     87% 0.0 mm 0 W/m2
01:57 15.4 °C 13.2 °C 1016.6 hPa Calm   1.6 km/h 87% 0.0 mm 0 W/m2
02:02 15.4 °C 13.2 °C 1016.6 hPa Calm   1.6 km/h 87% 0.0 mm 0 W/m2
02:07 15.4 °C 13.2 °C 1016.6 hPa Calm     87% 0.0 mm 0 W/m2
02:12 15.4 °C 13.2 °C 1016.6 hPa WSW 1.4 km/h 4.8 km/h 87% 0.0 mm 0 W/m2
02:17 15.6 °C 13.3 °C 1016.6 hPa WSW 1.4 km/h 1.6 km/h 86% 0.0 mm 0 W/m2
02:22 15.7 °C 13.4 °C 1016.6 hPa Calm   3.2 km/h 86% 0.0 mm 0 W/m2
02:27 15.8 °C 13.3 °C 1016.6 hPa SSW 3.2 km/h 3.2 km/h 85% 0.0 mm 0 W/m2
02:32 15.8 °C 13.3 °C 1016.6 hPa Calm   1.6 km/h 85% 0.0 mm 0 W/m2
02:37 15.9 °C 13.4 °C 1016.6 hPa SSW 1.4 km/h 3.2 km/h 85% 0.0 mm 0 W/m2
02:42 15.9 °C 13.4 °C 1016.6 hPa SSW 1.4 km/h 1.6 km/h 85% 0.0 mm 0 W/m2
02:47 15.9 °C 13.4 °C 1016.6 hPa SSW 1.4 km/h 3.2 km/h 85% 0.0 mm 0 W/m2
02:52 15.8 °C 13.3 °C 1016.6 hPa Calm   1.6 km/h 85% 0.0 mm 0 W/m2
02:57 15.7 °C 13.4 °C 1016.6 hPa Calm   1.6 km/h 86% 0.0 mm 0 W/m2
03:02 15.7 °C 13.4 °C 1016.6 hPa Calm   3.2 km/h 86% 0.0 mm 0 W/m2
03:07 15.6 °C 13.3 °C 1016.6 hPa Calm   1.6 km/h 86% 0.0 mm 0 W/m2
03:12 15.6 °C 13.3 °C 1016.6 hPa Calm   3.2 km/h 86% 0.0 mm 0 W/m2
03:17 15.4 °C 13.1 °C 1016.6 hPa Calm     86% 0.0 mm 0 W/m2
03:22 15.3 °C 13 °C 1016.6 hPa Calm     86% 0.0 mm 0 W/m2
03:27 15.2 °C 13 °C 1016.6 hPa Calm     87% 0.0 mm 0 W/m2
03:32 15 °C 12.9 °C 1016.6 hPa Calm     87% 0.0 mm 0 W/m2
03:37 14.9 °C 12.9 °C 1016.6 hPa Calm     88% 0.0 mm 0 W/m2
03:42 14.8 °C 12.8 °C 1016.9 hPa Calm     88% 0.0 mm 0 W/m2
03:47 14.6 °C 12.6 °C 1016.9 hPa Calm     88% 0.0 mm 0 W/m2
03:52 14.5 °C 12.7 °C 1016.9 hPa Calm     89% 0.0 mm 0 W/m2
03:57 14.3 °C 12.5 °C 1016.9 hPa Calm     89% 0.0 mm 0 W/m2
04:02 14.3 °C 12.7 °C 1016.9 hPa Calm   1.6 km/h 90% 0.0 mm 0 W/m2
04:07 14.3 °C 12.7 °C 1016.9 hPa Calm     90% 0.0 mm 0 W/m2
04:12 14.2 °C 12.6 °C 1016.9 hPa Calm   1.6 km/h 90% 0.0 mm 0 W/m2
04:17 14.2 °C 12.6 °C 1016.9 hPa Calm     90% 0.0 mm 0 W/m2
04:22 14.1 °C 12.7 °C 1016.9 hPa Calm     91% 0.0 mm 0 W/m2
04:27 14.1 °C 12.7 °C 1016.9 hPa Calm     91% 0.0 mm 0 W/m2
04:32 14.1 °C 12.7 °C 1016.9 hPa Calm     91% 0.0 mm 0 W/m2
04:37 14.1 °C 12.7 °C 1016.9 hPa Calm     91% 0.0 mm 0 W/m2
04:42 14.1 °C 12.7 °C 1016.9 hPa Calm     91% 0.0 mm 0 W/m2
04:47 14.1 °C 12.7 °C 1016.9 hPa Calm     91% 0.0 mm 0 W/m2
04:52 13.9 °C 12.5 °C 1016.9 hPa Calm     91% 0.0 mm 0 W/m2
04:57 13.9 °C 12.5 °C 1016.9 hPa Calm     91% 0.0 mm 0 W/m2
05:02 13.8 °C 12.4 °C 1016.9 hPa Calm     91% 0.0 mm 0 W/m2
05:07 13.8 °C 12.5 °C 1016.9 hPa Calm     92% 0.0 mm 0 W/m2
05:12 13.8 °C 12.5 °C 1016.9 hPa Calm     92% 0.0 mm 0 W/m2
05:17 13.8 °C 12.5 °C 1016.9 hPa Calm     92% 0.0 mm 0 W/m2
05:22 13.8 °C 12.7 °C 1016.9 hPa Calm     93% 0.0 mm 0 W/m2
05:27 13.8 °C 12.7 °C 1016.9 hPa Calm     93% 0.0 mm 0 W/m2
05:32 13.9 °C 12.8 °C 1016.9 hPa Calm     93% 0.0 mm 0 W/m2
05:37 13.9 °C 12.8 °C 1016.9 hPa Calm     93% 0.0 mm 0 W/m2
05:42 13.8 °C 12.7 °C 1016.9 hPa Calm     93% 0.0 mm 0 W/m2
05:47 13.8 °C 12.7 °C 1016.9 hPa Calm     93% 0.0 mm 0 W/m2
05:52 13.7 °C 12.6 °C 1016.9 hPa Calm     93% 0.0 mm 0 W/m2
05:57 13.7 °C 12.6 °C 1016.9 hPa Calm     93% 0.0 mm 0 W/m2
06:02 13.6 °C 12.5 °C 1016.9 hPa Calm     93% 0.0 mm 0 W/m2
06:07 13.5 °C 12.4 °C 1016.9 hPa Calm     93% 0.0 mm 0 W/m2
06:12 13.4 °C 12.3 °C 1016.9 hPa Calm     93% 0.0 mm 0 W/m2
06:17 13.3 °C 12.2 °C 1016.9 hPa Calm     93% 0.0 mm 0 W/m2
06:22 13.3 °C 12.2 °C 1016.9 hPa Calm     93% 0.0 mm 0 W/m2
06:27 13.3 °C 12.2 °C 1017.3 hPa Calm     93% 0.0 mm 0 W/m2
06:32 13.3 °C 12.4 °C 1017.3 hPa Calm     94% 0.0 mm 0 W/m2
06:37 13.3 °C 12.4 °C 1017.3 hPa Calm     94% 0.0 mm 0 W/m2
06:42 13.3 °C 12.4 °C 1017.3 hPa Calm     94% 0.0 mm 0 W/m2
06:47 13.4 °C 12.5 °C 1017.3 hPa Calm     94% 0.0 mm 0 W/m2
06:52 13.4 °C 12.5 °C 1017.3 hPa Calm     94% 0.0 mm 0 W/m2
06:57 13.4 °C 12.5 °C 1017.3 hPa Calm     94% 0.0 mm 0 W/m2
07:02 13.3 °C 12.4 °C 1017.3 hPa Calm     94% 0.0 mm 5 W/m2
07:07 13.3 °C 12.4 °C 1017.6 hPa Calm     94% 0.0 mm 7 W/m2
07:13 13.3 °C 12.4 °C 1017.6 hPa Calm     94% 0.0 mm 9 W/m2
07:18 13.3 °C 12.4 °C 1017.6 hPa Calm     94% 0.0 mm 11 W/m2
07:23 13.4 °C 12.5 °C 1017.6 hPa Calm     94% 0.0 mm 14 W/m2
07:28 13.5 °C 12.7 °C 1017.6 hPa Calm     95% 0.0 mm 16 W/m2
07:33 13.6 °C 12.8 °C 1017.6 hPa Calm     95% 0.0 mm 18 W/m2
07:38 13.6 °C 12.7 °C 1017.6 hPa Calm     94% 0.0 mm 19 W/m2
07:43 13.7 °C 12.8 °C 1017.6 hPa Calm     94% 0.0 mm 21 W/m2
07:48 13.6 °C 12.7 °C 1018.0 hPa Calm     94% 0.0 mm 23 W/m2
07:53 13.6 °C 12.7 °C 1017.6 hPa Calm     94% 0.0 mm 25 W/m2
07:58 13.6 °C 12.7 °C 1018.0 hPa Calm     94% 0.0 mm 26 W/m2
08:03 13.7 °C 12.8 °C 1018.0 hPa Calm     94% 0.0 mm 28 W/m2
08:08 13.7 °C 12.8 °C 1018.0 hPa Calm     94% 0.0 mm 30 W/m2
08:13 13.8 °C 13 °C 1018.0 hPa Calm     95% 0.0 mm 39 W/m2
08:18 14 °C 13.2 °C 1018.0 hPa Calm     95% 0.0 mm 93 W/m2
08:23 14.2 °C 13.4 °C 1018.0 hPa Calm     95% 0.0 mm 121 W/m2
08:28 14.4 °C 13.6 °C 1018.0 hPa Calm   1.6 km/h 95% 0.0 mm 134 W/m2
08:33 14.7 °C 13.9 °C 1018.0 hPa Calm     95% 0.0 mm 153 W/m2
08:38 14.9 °C 13.9 °C 1018.3 hPa Calm     94% 0.0 mm 165 W/m2
08:43 15.2 °C 14.1 °C 1018.3 hPa ESE 1.4 km/h 3.2 km/h 93% 0.0 mm 179 W/m2
08:48 15.5 °C 14.2 °C 1018.0 hPa NE 1.4 km/h 1.6 km/h 92% 0.0 mm 197 W/m2
08:53 15.8 °C 14.5 °C 1018.3 hPa ENE 1.4 km/h 3.2 km/h 92% 0.0 mm 211 W/m2
08:58 15.9 °C 14.3 °C 1018.3 hPa ENE 1.4 km/h 3.2 km/h 90% 0.0 mm 221 W/m2
09:03 16.1 °C 14.3 °C 1018.3 hPa Calm   3.2 km/h 89% 0.0 mm 65 W/m2
09:08 16.3 °C 14.3 °C 1018.3 hPa Calm   4.8 km/h 88% 0.0 mm 49 W/m2
09:13 16.4 °C 14.2 °C 1018.3 hPa Calm   1.6 km/h 87% 0.0 mm 234 W/m2
09:18 16.6 °C 14.4 °C 1018.3 hPa Calm     87% 0.0 mm 274 W/m2
09:23 16.8 °C 14.6 °C 1018.3 hPa Calm     87% 0.0 mm 290 W/m2
09:28 16.9 °C 14.5 °C 1018.3 hPa ESE 1.4 km/h 3.2 km/h 86% 0.0 mm 308 W/m2
09:33 17.2 °C 14.7 °C 1018.3 hPa ENE 1.4 km/h 1.6 km/h 85% 0.0 mm 323 W/m2
09:38 17.5 °C 14.8 °C 1018.3 hPa Calm     84% 0.0 mm 336 W/m2
09:43 17.8 °C 14.9 °C 1018.3 hPa Calm   1.6 km/h 83% 0.0 mm 353 W/m2
09:48 18.1 °C 15 °C 1018.6 hPa East 1.4 km/h 3.2 km/h 82% 0.0 mm 366 W/m2
09:53 18.3 °C 15 °C 1018.6 hPa Calm   3.2 km/h 81% 0.0 mm 380 W/m2
09:58 18.7 °C 15.2 °C 1018.6 hPa NW 1.4 km/h 3.2 km/h 80% 0.0 mm 392 W/m2
10:03 18.7 °C 15.2 °C 1018.6 hPa Calm   1.6 km/h 80% 0.0 mm 403 W/m2
10:08 18.8 °C 15.3 °C 1018.6 hPa NNE 1.4 km/h 3.2 km/h 80% 0.0 mm 415 W/m2
10:13 19.1 °C 15.2 °C 1018.6 hPa Calm   1.6 km/h 78% 0.0 mm 432 W/m2
10:18 19.3 °C 15.4 °C 1018.6 hPa NE 1.4 km/h 4.8 km/h 78% 0.0 mm 446 W/m2
10:23 19.7 °C 15.6 °C 1018.6 hPa Calm   3.2 km/h 77% 0.0 mm 461 W/m2
10:28 20 °C 15.4 °C 1019.0 hPa NNE 1.4 km/h 6.4 km/h 75% 0.0 mm 487 W/m2
10:33 20.2 °C 15.6 °C 1019.0 hPa NNE 1.4 km/h 4.8 km/h 75% 0.0 mm 490 W/m2
10:38 20.3 °C 15.3 °C 1019.0 hPa NNE 1.4 km/h 6.4 km/h 73% 0.0 mm 499 W/m2
10:43 20.4 °C 15.6 °C 1019.0 hPa ENE 1.4 km/h 3.2 km/h 74% 0.0 mm 510 W/m2
10:48 20.8 °C 15.6 °C 1019.0 hPa Calm   3.2 km/h 72% 0.0 mm 519 W/m2
10:53 21.1 °C 15.4 °C 1019.0 hPa ENE 1.4 km/h 4.8 km/h 70% 0.0 mm 534 W/m2
10:58 21.4 °C 15.5 °C 1019.0 hPa Calm   3.2 km/h 69% 0.0 mm 541 W/m2
11:03 21.6 °C 15.4 °C 1019.0 hPa Calm   1.6 km/h 68% 0.0 mm 554 W/m2
11:08 21.8 °C 15.6 °C 1019.0 hPa Calm   1.6 km/h 68% 0.0 mm 563 W/m2
11:13 21.9 °C 15 °C 1019.0 hPa Calm   6.4 km/h 65% 0.0 mm 573 W/m2
11:18 22 °C 15.4 °C 1019.0 hPa East 1.4 km/h 6.4 km/h 66% 0.0 mm 580 W/m2
11:23 22.1 °C 15.2 °C 1019.0 hPa ESE 1.4 km/h 4.8 km/h 65% 0.0 mm 587 W/m2
11:28 22.1 °C 15.2 °C 1019.0 hPa South 3.2 km/h 6.4 km/h 65% 0.0 mm 594 W/m2
11:33 22.3 °C 15.6 °C 1019.0 hPa East 3.2 km/h 8 km/h 66% 0.0 mm 601 W/m2
11:38 22.4 °C 15.3 °C 1019.0 hPa ESE 3.2 km/h 4.8 km/h 64% 0.0 mm 608 W/m2
11:43 22.6 °C 15.4 °C 1019.0 hPa ESE 3.2 km/h 3.2 km/h 64% 0.0 mm 612 W/m2
11:48 23 °C 16.1 °C 1019.0 hPa Calm   1.6 km/h 65% 0.0 mm 628 W/m2
11:53 23.3 °C 15.6 °C 1019.0 hPa NE 1.4 km/h 6.4 km/h 62% 0.0 mm 635 W/m2
11:58 23.5 °C 15.8 °C 1019.0 hPa Calm   3.2 km/h 62% 0.0 mm 645 W/m2
12:03 23.6 °C 15.9 °C 1018.6 hPa SSE 1.4 km/h 6.4 km/h 62% 0.0 mm 652 W/m2
12:08 23.9 °C 15.9 °C 1018.6 hPa NNE 3.2 km/h 4.8 km/h 61% 0.0 mm 661 W/m2
12:13 23.9 °C 15.4 °C 1018.6 hPa East 3.2 km/h 8 km/h 59% 0.0 mm 664 W/m2
12:18 24.1 °C 15.8 °C 1018.6 hPa Calm   4.8 km/h 60% 0.0 mm 670 W/m2
12:23 24.3 °C 16 °C 1018.6 hPa ESE 3.2 km/h 6.4 km/h 60% 0.0 mm 675 W/m2
12:28 24.6 °C 16.1 °C 1018.6 hPa NE 1.4 km/h 6.4 km/h 59% 0.0 mm 684 W/m2
12:33 24.8 °C 16 °C 1018.6 hPa ENE 1.4 km/h 8 km/h 58% 0.0 mm 687 W/m2
12:38 25.1 °C 15.7 °C 1018.6 hPa ESE 6.4 km/h 8 km/h 56% 0.0 mm 691 W/m2
12:43 25.3 °C 15.9 °C 1018.6 hPa East 1.4 km/h 3.2 km/h 56% 0.0 mm 694 W/m2
12:48 25.3 °C 16.2 °C 1018.6 hPa East 1.4 km/h 4.8 km/h 57% 0.0 mm 698 W/m2
12:53 25.3 °C 15.9 °C 1018.6 hPa NE 9.7 km/h 9.7 km/h 56% 0.0 mm 701 W/m2
12:58 25.2 °C 15.5 °C 1018.6 hPa SE 4.7 km/h 6.4 km/h 55% 0.0 mm 703 W/m2
13:03 25.3 °C 15.9 °C 1018.6 hPa East 6.4 km/h 11.3 km/h 56% 0.0 mm 705 W/m2
13:08 25.4 °C 15.7 °C 1018.3 hPa SE 3.2 km/h 9.7 km/h 55% 0.0 mm 714 W/m2
13:13 25.6 °C 16.2 °C 1018.3 hPa ESE 3.2 km/h 11.3 km/h 56% 0.0 mm 710 W/m2
13:18 25.7 °C 16.3 °C 1018.3 hPa NE 3.2 km/h 6.4 km/h 56% 0.0 mm 710 W/m2
13:23 25.8 °C 15.5 °C 1018.3 hPa NE 4.7 km/h 4.8 km/h 53% 0.0 mm 715 W/m2
13:28 25.8 °C 15.5 °C 1018.3 hPa East 1.4 km/h 3.2 km/h 53% 0.0 mm 717 W/m2
13:33 26 °C 16 °C 1018.3 hPa ESE 3.2 km/h 6.4 km/h 54% 0.0 mm 726 W/m2
13:38 26.1 °C 15.8 °C 1018.3 hPa Calm   6.4 km/h 53% 0.0 mm 731 W/m2
13:43 26 °C 14.8 °C 1018.3 hPa NE 1.4 km/h 12.9 km/h 50% 0.0 mm 584 W/m2
13:48 26 °C 15.1 °C 1018.6 hPa ENE 4.7 km/h 4.8 km/h 51% 0.0 mm 733 W/m2
13:53 26.2 °C 16.2 °C 1018.3 hPa North 6.4 km/h 6.4 km/h 54% 0.0 mm 747 W/m2
13:58 26.2 °C 15 °C 1018.3 hPa West 4.7 km/h 4.8 km/h 50% 0.0 mm 740 W/m2
14:03 26.2 °C 14.3 °C 1018.3 hPa SSE 3.2 km/h 6.4 km/h 48% 0.0 mm 766 W/m2
14:08 26.2 °C 14 °C 1018.3 hPa Calm   11.3 km/h 47% 0.0 mm 701 W/m2
14:13 26.3 °C 14.4 °C 1018.3 hPa North 1.4 km/h 3.2 km/h 48% 0.0 mm 613 W/m2
14:18 26.4 °C 14.8 °C 1018.3 hPa East 1.4 km/h 9.7 km/h 49% 0.0 mm 457 W/m2
14:23 26.4 °C 14.8 °C 1018.6 hPa NE 3.2 km/h 8 km/h 49% 0.0 mm 715 W/m2
14:28 26.6 °C 15 °C 1018.3 hPa South 4.7 km/h 9.7 km/h 49% 0.0 mm 853 W/m2
14:34 26.6 °C 14.4 °C 1018.3 hPa NW 3.2 km/h 6.4 km/h 47% 0.0 mm 536 W/m2
14:39 26.6 °C 14.7 °C 1018.3 hPa NNW 4.7 km/h 8 km/h 48% 0.0 mm 345 W/m2
14:44 26.4 °C 14.5 °C 1018.3 hPa NNW 1.4 km/h 4.8 km/h 48% 0.0 mm 345 W/m2
14:49 26.5 °C 13.9 °C 1018.3 hPa Calm   6.4 km/h 46% 0.0 mm 403 W/m2
14:54 26.5 °C 13.3 °C 1018.3 hPa ESE 1.4 km/h 3.2 km/h 44% 0.0 mm 446 W/m2
14:59 26.4 °C 14.8 °C 1018.3 hPa Calm   1.6 km/h 49% 0.0 mm 468 W/m2
15:04 26.4 °C 14.2 °C 1018.3 hPa East 7.9 km/h 8 km/h 47% 0.0 mm 492 W/m2
15:09 26.6 °C 14 °C 1018.3 hPa ESE 1.4 km/h 4.8 km/h 46% 0.0 mm 587 W/m2
15:14 26.8 °C 14.9 °C 1018.3 hPa ESE 3.2 km/h 16.1 km/h 48% 0.0 mm 568 W/m2
15:19 27.1 °C 14.1 °C 1018.3 hPa East 1.4 km/h 9.7 km/h 45% 0.0 mm 508 W/m2
15:24 27 °C 14.1 °C 1018.3 hPa SE 4.7 km/h 16.1 km/h 45% 0.0 mm 380 W/m2
15:29 26.9 °C 14.3 °C 1018.3 hPa Calm   3.2 km/h 46% 0.0 mm 350 W/m2
15:34 26.8 °C 14.2 °C 1018.0 hPa Calm   9.7 km/h 46% 0.0 mm 343 W/m2
15:39 26.8 °C 14.9 °C 1018.0 hPa NE 3.2 km/h 3.2 km/h 48% 0.0 mm 336 W/m2
15:44 26.7 °C 14.1 °C 1018.0 hPa ESE 4.7 km/h 6.4 km/h 46% 0.0 mm 311 W/m2
15:49 26.5 °C 14.3 °C 1018.0 hPa NE 1.4 km/h 11.3 km/h 47% 0.0 mm 306 W/m2
15:54 26.4 °C 14.5 °C 1018.0 hPa NW 1.4 km/h 4.8 km/h 48% 0.0 mm 350 W/m2
15:59 26.4 °C 14.2 °C 1018.0 hPa NW 3.2 km/h 11.3 km/h 47% 0.0 mm 322 W/m2
16:04 26.4 °C 14.2 °C 1018.0 hPa WNW 3.2 km/h 12.9 km/h 47% 0.0 mm 299 W/m2
16:09 26.3 °C 14.4 °C 1018.0 hPa WNW 3.2 km/h 3.2 km/h 48% 0.0 mm 290 W/m2
16:14 26.3 °C 14.4 °C 1018.0 hPa North 6.4 km/h 6.4 km/h 48% 0.0 mm 297 W/m2
16:19 26.3 °C 14.4 °C 1018.0 hPa WNW 3.2 km/h 8 km/h 48% 0.0 mm 380 W/m2
16:24 26.3 °C 14.7 °C 1018.0 hPa West 3.2 km/h 8 km/h 49% 0.0 mm 411 W/m2
16:29 26.3 °C 14.4 °C 1018.0 hPa NW 6.4 km/h 6.4 km/h 48% 0.0 mm 373 W/m2
16:34 26.4 °C 14.5 °C 1018.0 hPa NNW 3.2 km/h 6.4 km/h 48% 0.0 mm 487 W/m2
16:39 26.7 °C 14.8 °C 1018.0 hPa NNE 3.2 km/h 8 km/h 48% 0.0 mm 357 W/m2
16:44 26.8 °C 14.2 °C 1018.0 hPa West 1.4 km/h 11.3 km/h 46% 0.0 mm 515 W/m2
16:49 26.9 °C 14.3 °C 1018.0 hPa ESE 3.2 km/h 6.4 km/h 46% 0.0 mm 330 W/m2
16:54 26.9 °C 14.6 °C 1018.0 hPa ENE 4.7 km/h 11.3 km/h 47% 0.0 mm 399 W/m2
16:59 26.9 °C 14.6 °C 1018.0 hPa NE 9.7 km/h 12.9 km/h 47% 0.0 mm 357 W/m2
17:04 26.8 °C 14.5 °C 1018.0 hPa ESE 3.2 km/h 11.3 km/h 47% 0.0 mm 239 W/m2
17:09 26.6 °C 14.7 °C 1018.0 hPa WNW 6.4 km/h 6.4 km/h 48% 0.0 mm 181 W/m2
17:14 26.3 °C 14.4 °C 1018.0 hPa West 6.4 km/h 6.4 km/h 48% 0.0 mm 167 W/m2
17:19 26 °C 14.5 °C 1018.0 hPa NW 4.7 km/h 6.4 km/h 49% 0.0 mm 160 W/m2
17:24 25.9 °C 14.4 °C 1018.0 hPa Calm   1.6 km/h 49% 0.0 mm 176 W/m2
17:29 26 °C 14.1 °C 1018.0 hPa NNW 4.7 km/h 6.4 km/h 48% 0.0 mm 239 W/m2
17:34 26.2 °C 14.6 °C 1018.0 hPa NW 1.4 km/h 8 km/h 49% 0.0 mm 459 W/m2
17:39 26.5 °C 14.6 °C 1018.0 hPa West 4.7 km/h 6.4 km/h 48% 0.0 mm 492 W/m2
17:44 26.7 °C 14.5 °C 1018.0 hPa NW 6.4 km/h 8 km/h 47% 0.0 mm 445 W/m2
17:49 26.8 °C 14.5 °C 1018.0 hPa North 4.7 km/h 4.8 km/h 47% 0.0 mm 404 W/m2
17:54 27 °C 15.1 °C 1018.0 hPa NE 4.7 km/h 4.8 km/h 48% 0.0 mm 359 W/m2
17:59 27.2 °C 14.6 °C 1018.0 hPa NE 1.4 km/h 8 km/h 46% 0.0 mm 334 W/m2
18:04 27.2 °C 14.9 °C 1018.0 hPa ESE 4.7 km/h 11.3 km/h 47% 0.0 mm 311 W/m2
18:09 27.2 °C 14.6 °C 1018.0 hPa ESE 4.7 km/h 4.8 km/h 46% 0.0 mm 297 W/m2
18:14 27.2 °C 14.9 °C 1018.0 hPa NNW 6.4 km/h 11.3 km/h 47% 0.0 mm 290 W/m2
18:19 27.2 °C 14.6 °C 1018.0 hPa ENE 1.4 km/h 3.2 km/h 46% 0.0 mm 269 W/m2
18:24 27.3 °C 14.7 °C 1018.0 hPa WSW 4.7 km/h 6.4 km/h 46% 0.0 mm 253 W/m2
18:29 27.4 °C 15.1 °C 1018.0 hPa North 3.2 km/h 3.2 km/h 47% 0.0 mm 236 W/m2
18:34 27.3 °C 16 °C 1018.0 hPa SW 4.7 km/h 4.8 km/h 50% 0.0 mm 218 W/m2
18:39 27.1 °C 15.5 °C 1018.0 hPa SW 1.4 km/h 3.2 km/h 49% 0.0 mm 200 W/m2
18:44 26.9 °C 15.9 °C 1018.0 hPa SSE 1.4 km/h 1.6 km/h 51% 0.0 mm 185 W/m2
18:49 26.7 °C 15.4 °C 1018.0 hPa North 3.2 km/h 3.2 km/h 50% 0.0 mm 171 W/m2
18:54 26.6 °C 15.3 °C 1018.0 hPa SW 1.4 km/h 1.6 km/h 50% 0.0 mm 155 W/m2
18:59 26.5 °C 15.5 °C 1018.3 hPa Calm   1.6 km/h 51% 0.0 mm 142 W/m2
19:04 26.3 °C 15.4 °C 1018.3 hPa NNE 1.4 km/h 3.2 km/h 51% 0.0 mm 128 W/m2
19:09 26.2 °C 15.9 °C 1018.3 hPa NNW 1.4 km/h 4.8 km/h 53% 0.0 mm 113 W/m2
19:14 25.9 °C 16.4 °C 1018.3 hPa SSE 3.2 km/h 3.2 km/h 56% 0.0 mm 76 W/m2
19:19 25.5 °C 16.6 °C 1018.3 hPa Calm   3.2 km/h 58% 0.0 mm 81 W/m2
19:24 25.1 °C 16.8 °C 1018.3 hPa Calm   1.6 km/h 60% 0.0 mm 40 W/m2
19:29 24.7 °C 16.4 °C 1018.3 hPa SSE 1.4 km/h 1.6 km/h 60% 0.0 mm 25 W/m2
19:34 24.2 °C 16.2 °C 1018.3 hPa SSE 1.4 km/h 3.2 km/h 61% 0.0 mm 21 W/m2
19:39 23.8 °C 16.3 °C 1018.3 hPa SSE 1.4 km/h 3.2 km/h 63% 0.0 mm 19 W/m2
19:44 23.5 °C 16.3 °C 1018.6 hPa SSE 3.2 km/h 3.2 km/h 64% 0.0 mm 16 W/m2
19:49 23.2 °C 16.3 °C 1018.6 hPa Calm   3.2 km/h 65% 0.0 mm 16 W/m2
19:54 22.9 °C 16.2 °C 1018.6 hPa SSE 1.4 km/h 3.2 km/h 66% 0.0 mm 14 W/m2
19:59 22.7 °C 16.3 °C 1018.6 hPa SSE 1.4 km/h 1.6 km/h 67% 0.0 mm 12 W/m2
20:04 22.4 °C 16 °C 1018.6 hPa Calm   3.2 km/h 67% 0.0 mm 9 W/m2
20:09 22.1 °C 15.9 °C 1018.6 hPa SSE 1.4 km/h 1.6 km/h 68% 0.0 mm 5 W/m2
20:14 21.7 °C 15.8 °C 1018.6 hPa South 1.4 km/h 3.2 km/h 69% 0.0 mm 0 W/m2
20:19 21.5 °C 15.8 °C 1018.6 hPa Calm   3.2 km/h 70% 0.0 mm 0 W/m2
20:24 21.3 °C 15.6 °C 1018.6 hPa South 1.4 km/h 3.2 km/h 70% 0.0 mm 0 W/m2
20:29 21.1 °C 15.6 °C 1019.0 hPa Calm     71% 0.0 mm 0 W/m2
20:34 20.9 °C 15.4 °C 1019.0 hPa Calm   3.2 km/h 71% 0.0 mm 0 W/m2
20:39 20.7 °C 15.3 °C 1019.0 hPa Calm   1.6 km/h 71% 0.0 mm 0 W/m2
20:44 20.6 °C 15.4 °C 1019.0 hPa Calm   3.2 km/h 72% 0.0 mm 0 W/m2
20:49 20.4 °C 15.4 °C 1019.0 hPa South 1.4 km/h 1.6 km/h 73% 0.0 mm 0 W/m2
20:54 20.2 °C 15.2 °C 1019.0 hPa Calm     73% 0.0 mm 0 W/m2
20:59 20.1 °C 15.3 °C 1019.0 hPa Calm     74% 0.0 mm 0 W/m2
21:04 20 °C 15.2 °C 1019.3 hPa Calm     74% 0.0 mm 0 W/m2
21:09 19.8 °C 15 °C 1019.3 hPa Calm     74% 0.0 mm 0 W/m2
21:14 19.7 °C 15.1 °C 1019.3 hPa Calm     75% 0.0 mm 0 W/m2
21:19 19.6 °C 15 °C 1019.3 hPa Calm   3.2 km/h 75% 0.0 mm 0 W/m2
21:24 19.4 °C 14.9 °C 1019.3 hPa South 1.4 km/h 1.6 km/h 75% 0.0 mm 0 W/m2
21:29 19.3 °C 15 °C 1019.3 hPa Calm     76% 0.0 mm 0 W/m2
21:34 19.2 °C 14.9 °C 1019.3 hPa Calm   1.6 km/h 76% 0.0 mm 0 W/m2
21:39 19.1 °C 14.8 °C 1019.3 hPa Calm     76% 0.0 mm 0 W/m2
21:44 18.9 °C 14.8 °C 1019.3 hPa Calm   1.6 km/h 77% 0.0 mm 0 W/m2
21:49 18.8 °C 14.7 °C 1019.3 hPa Calm   3.2 km/h 77% 0.0 mm 0 W/m2
21:54 18.8 °C 14.7 °C 1019.6 hPa Calm   1.6 km/h 77% 0.0 mm 0 W/m2
21:59 18.7 °C 14.6 °C 1019.3 hPa Calm   1.6 km/h 77% 0.0 mm 0 W/m2
22:04 18.7 °C 14.6 °C 1019.6 hPa Calm     77% 0.0 mm 0 W/m2
22:09 18.6 °C 14.5 °C 1019.6 hPa Calm   1.6 km/h 77% 0.0 mm 0 W/m2
22:14 18.4 °C 14.5 °C 1019.6 hPa Calm   1.6 km/h 78% 0.0 mm 0 W/m2
22:19 18.3 °C 14.4 °C 1019.6 hPa Calm     78% 0.0 mm 0 W/m2
22:24 18.2 °C 14.5 °C 1019.6 hPa Calm   1.6 km/h 79% 0.0 mm 0 W/m2
22:29 18.1 °C 14.4 °C 1019.6 hPa Calm   3.2 km/h 79% 0.0 mm 0 W/m2
22:34 18 °C 14.5 °C 1019.6 hPa Calm     80% 0.0 mm 0 W/m2
22:39 17.9 °C 14.4 °C 1019.6 hPa Calm   3.2 km/h 80% 0.0 mm 0 W/m2
22:44 17.8 °C 14.3 °C 1019.6 hPa Calm     80% 0.0 mm 0 W/m2
22:49 17.8 °C 14.3 °C 1019.6 hPa Calm   1.6 km/h 80% 0.0 mm 0 W/m2
22:54 17.7 °C 14.2 °C 1019.6 hPa Calm     80% 0.0 mm 0 W/m2
22:59 17.6 °C 14.3 °C 1019.6 hPa Calm     81% 0.0 mm 0 W/m2
23:04 17.5 °C 14.2 °C 1019.6 hPa South 1.4 km/h 3.2 km/h 81% 0.0 mm 0 W/m2
23:10 17.4 °C 14.3 °C 1019.6 hPa Calm   3.2 km/h 82% 0.0 mm 0 W/m2
23:15 17.3 °C 14.2 °C 1019.6 hPa Calm     82% 0.0 mm 0 W/m2
23:20 17.3 °C 14.2 °C 1019.6 hPa Calm   1.6 km/h 82% 0.0 mm 0 W/m2
23:25 17.2 °C 14.1 °C 1019.6 hPa South 1.4 km/h 1.6 km/h 82% 0.0 mm 0 W/m2
23:30 17.2 °C 14.1 °C 1019.6 hPa Calm     82% 0.0 mm 0 W/m2
23:35 17.1 °C 14.2 °C 1019.6 hPa Calm     83% 0.0 mm 0 W/m2
23:40 17 °C 14.1 °C 1019.6 hPa Calm     83% 0.0 mm 0 W/m2
23:45 16.9 °C 14 °C 1020.0 hPa Calm   3.2 km/h 83% 0.0 mm 0 W/m2
23:50 16.8 °C 13.9 °C 1020.0 hPa Calm   3.2 km/h 83% 0.0 mm 0 W/m2
23:55 16.8 °C 13.9 °C 1020.0 hPa South 1.4 km/h 1.6 km/h 83% 0.0 mm 0 W/m2
Juneau County Weather
Compliments of Weather Underground - 4 mb